Time;durP1;ratioP1;P1;durP2;ratioP2;P2;SDS_P1;SDS_P2;PMS_P1;PMS_P2;Temp;Humidity;BMP_temperature;BMP_pressure;BME280_temperature;BME280_humidity;BME280_pressure;Samples;Min_cycle;Max_cycle;Signal;HPM_P1;HPM_P2
2023/12/31 00:01:01;;;;;;;2.33;0.95;;;11.70;99.90;;;;;;5024076;28;20049;-85
2023/12/31 00:03:40;;;;;;;3.17;1.23;;;11.80;99.90;;;;;;5015893;28;20053;-86
2023/12/31 00:06:07;;;;;;;1.67;1.00;;;11.70;99.90;;;;;;5006388;28;20060;-83
2023/12/31 00:08:34;;;;;;;3.80;1.50;;;11.70;99.90;;;;;;5004640;28;20398;-84
2023/12/31 00:11:02;;;;;;;2.28;1.17;;;11.80;99.90;;;;;;5004212;28;20056;-82
2023/12/31 00:13:29;;;;;;;2.95;1.20;;;11.70;99.90;;;;;;4996268;28;20050;-84
2023/12/31 00:15:56;;;;;;;2.40;1.13;;;11.80;99.90;;;;;;4987939;28;20054;-84
2023/12/31 00:18:24;;;;;;;2.35;1.25;;;11.80;99.90;;;;;;5022004;28;20487;-85
2023/12/31 00:20:52;;;;;;;3.83;1.20;;;11.80;99.90;;;;;;5020711;28;20045;-84
2023/12/31 00:23:19;;;;;;;2.38;1.00;;;11.80;99.90;;;;;;5024532;28;20088;-83
2023/12/31 00:25:46;;;;;;;2.92;1.33;;;11.80;99.90;;;;;;5039110;28;20499;-84
2023/12/31 00:28:13;;;;;;;2.30;1.30;;;11.80;99.90;;;;;;5005807;28;20076;-84
2023/12/31 00:30:40;;;;;;;1.73;0.80;;;11.80;99.90;;;;;;5022522;28;20049;-84
2023/12/31 00:33:08;;;;;;;2.83;1.35;;;11.80;99.90;;;;;;5002114;28;20054;-84
2023/12/31 00:35:35;;;;;;;1.65;0.95;;;11.90;99.90;;;;;;5004105;28;20060;-84
2023/12/31 00:38:05;;;;;;;2.15;1.00;;;11.90;99.90;;;;;;5002103;28;20127;-83
2023/12/31 00:40:33;;;;;;;3.00;1.60;;;11.90;99.90;;;;;;5009860;28;20085;-80
2023/12/31 00:43:01;;;;;;;3.60;1.75;;;11.80;99.90;;;;;;4998845;28;20049;-77
2023/12/31 00:45:28;;;;;;;1.73;1.05;;;11.70;57.30;;;;;;5035945;28;20107;-77
2023/12/31 00:47:55;;;;;;;1.92;1.10;;;11.50;1.00;;;;;;5036809;28;20494;-77
2023/12/31 00:50:22;;;;;;;2.47;0.70;;;11.30;99.90;;;;;;5017304;28;20609;-75
2023/12/31 00:52:48;;;;;;;1.98;0.70;;;11.20;99.90;;;;;;5028118;28;20145;-76
2023/12/31 00:55:15;;;;;;;1.67;0.60;;;10.80;1.00;;;;;;5028405;28;20267;-76
2023/12/31 00:57:42;;;;;;;1.08;0.40;;;10.50;99.90;;;;;;5026906;28;20128;-76
2023/12/31 01:00:10;;;;;;;0.85;0.40;;;10.20;99.90;;;;;;5036399;28;20084;-77
2023/12/31 01:02:37;;;;;;;0.30;0.22;;;9.90;99.90;;;;;;5021501;28;20084;-77
2023/12/31 01:05:04;;;;;;;0.17;0.17;;;9.60;1.00;;;;;;5037017;28;20345;-76
2023/12/31 01:07:31;;;;;;;0.30;0.20;;;9.30;69.10;;;;;;5021094;28;20054;-77
2023/12/31 01:09:58;;;;;;;0.28;0.20;;;9.20;99.90;;;;;;5020030;28;20056;-76
2023/12/31 01:12:25;;;;;;;0.20;0.20;;;9.10;1.00;;;;;;5003660;28;20046;-76
2023/12/31 01:14:52;;;;;;;0.22;0.22;;;9.10;99.90;;;;;;5027494;28;20498;-75
2023/12/31 01:17:19;;;;;;;0.10;0.10;;;9.00;99.90;;;;;;5043812;28;20124;-76
2023/12/31 01:19:46;;;;;;;0.60;0.20;;;8.90;99.90;;;;;;5043289;28;20053;-76
2023/12/31 01:22:13;;;;;;;0.43;0.30;;;8.80;33.10;;;;;;5025009;28;20048;-75
2023/12/31 01:24:40;;;;;;;0.30;0.30;;;8.70;99.90;;;;;;5041824;28;20475;-76
2023/12/31 01:27:06;;;;;;;0.50;0.30;;;8.70;1.00;;;;;;5043902;28;20092;-76
2023/12/31 01:29:37;;;;;;;0.20;0.20;;;8.60;99.90;;;;;;5043978;28;20246;-75
2023/12/31 01:32:04;;;;;;;0.90;0.30;;;8.60;99.90;;;;;;5043553;28;20056;-75
2023/12/31 01:34:31;;;;;;;0.20;0.20;;;8.50;99.90;;;;;;5042308;28;20055;-75
2023/12/31 01:36:58;;;;;;;0.10;0.10;;;8.50;1.00;;;;;;5040952;28;20246;-76
2023/12/31 01:39:25;;;;;;;0.75;0.22;;;8.50;1.00;;;;;;5026076;28;20049;-75
2023/12/31 01:41:52;;;;;;;0.52;0.22;;;8.50;99.90;;;;;;5041666;28;20053;-76
2023/12/31 01:44:19;;;;;;;0.75;0.15;;;8.40;99.90;;;;;;5041522;28;20075;-76
2023/12/31 01:46:46;;;;;;;0.10;0.10;;;8.40;1.00;;;;;;5013275;28;20148;-75
2023/12/31 01:49:12;;;;;;;0.35;0.30;;;8.50;99.90;;;;;;5006113;28;20056;-75
2023/12/31 01:51:39;;;;;;;0.25;0.20;;;8.50;99.90;;;;;;5004524;28;20754;-76
2023/12/31 01:54:06;;;;;;;0.40;0.17;;;8.40;99.90;;;;;;5016714;28;20056;-75
2023/12/31 01:56:33;;;;;;;0.10;0.10;;;8.40;99.90;;;;;;5042362;28;20937;-75
2023/12/31 01:59:01;;;;;;;0.20;0.20;;;8.40;99.90;;;;;;5033201;28;20422;-75
2023/12/31 02:01:28;;;;;;;0.45;0.30;;;8.40;99.90;;;;;;5029247;28;20064;-75
2023/12/31 02:03:55;;;;;;;0.20;0.20;;;8.40;1.00;;;;;;5020997;28;20342;-75
2023/12/31 02:06:21;;;;;;;0.20;0.20;;;8.40;36.90;;;;;;5033608;28;20619;-75
2023/12/31 02:08:48;;;;;;;0.70;0.30;;;8.50;1.00;;;;;;5019443;28;20124;-76
2023/12/31 02:11:16;;;;;;;0.50;0.40;;;8.40;92.20;;;;;;5009792;28;20104;-75
2023/12/31 02:13:45;;;;;;;0.50;0.10;;;8.40;99.90;;;;;;5003435;28;20058;-76
2023/12/31 02:16:15;;;;;;;0.30;0.30;;;8.40;99.90;;;;;;5022795;28;20136;-76
2023/12/31 02:18:43;;;;;;;0.20;0.20;;;8.50;99.90;;;;;;5022240;28;20140;-77
2023/12/31 02:21:10;;;;;;;0.38;0.30;;;8.40;99.90;;;;;;5021344;28;20045;-76
2023/12/31 02:23:37;;;;;;;0.70;0.28;;;8.40;99.90;;;;;;5020841;28;20072;-75
2023/12/31 02:26:11;;;;;;;0.35;0.30;;;8.40;99.90;;;;;;5023263;28;20135;-76
2023/12/31 02:28:38;;;;;;;0.30;0.20;;;8.40;99.90;;;;;;5040652;28;20041;-76
2023/12/31 02:31:05;;;;;;;0.30;0.20;;;8.40;99.90;;;;;;5021603;28;21210;-76
2023/12/31 02:33:32;;;;;;;0.52;0.20;;;8.50;1.00;;;;;;5030556;28;20084;-76
2023/12/31 02:35:59;;;;;;;0.25;0.17;;;8.40;1.00;;;;;;4992174;28;20356;-75
2023/12/31 02:38:26;;;;;;;0.75;0.35;;;8.40;1.00;;;;;;5024525;28;20049;-76
2023/12/31 02:40:53;;;;;;;0.30;0.10;;;8.40;1.00;;;;;;5024690;28;20096;-76
2023/12/31 02:43:20;;;;;;;1.05;0.30;;;8.50;1.00;;;;;;5032735;28;20045;-75
2023/12/31 02:45:47;;;;;;;0.40;0.40;;;8.50;1.00;;;;;;5008751;28;20132;-75
2023/12/31 02:48:14;;;;;;;0.20;0.20;;;8.50;1.00;;;;;;4992114;28;20534;-76
2023/12/31 02:50:41;;;;;;;0.20;0.20;;;8.50;1.00;;;;;;5024255;28;20053;-76
2023/12/31 02:53:08;;;;;;;1.02;0.30;;;8.50;99.90;;;;;;5007229;28;20045;-75
2023/12/31 02:55:35;;;;;;;0.47;0.30;;;8.50;1.00;;;;;;4992015;28;20045;-75
2023/12/31 02:58:03;;;;;;;0.17;0.17;;;8.50;1.00;;;;;;5025058;28;20057;-76
2023/12/31 03:00:30;;;;;;;0.28;0.20;;;8.50;1.00;;;;;;5026065;28;20048;-76
2023/12/31 03:02:57;;;;;;;0.52;0.20;;;8.50;1.00;;;;;;5007409;28;20057;-76
2023/12/31 03:05:23;;;;;;;0.20;0.20;;;8.50;1.00;;;;;;5027394;28;20045;-76
2023/12/31 03:07:50;;;;;;;0.20;0.20;;;8.50;1.00;;;;;;5041284;28;20053;-75
2023/12/31 03:10:17;;;;;;;0.10;0.10;;;8.50;1.00;;;;;;5011587;28;20044;-75
2023/12/31 03:12:44;;;;;;;0.20;0.20;;;8.50;1.00;;;;;;5043718;28;20204;-76
2023/12/31 03:15:11;;;;;;;1.13;0.60;;;8.50;1.00;;;;;;5044508;28;20048;-76
2023/12/31 03:17:38;;;;;;;0.20;0.17;;;8.60;1.00;;;;;;5027385;28;20118;-76
2023/12/31 03:20:06;;;;;;;1.77;0.40;;;8.60;1.00;;;;;;5044846;28;20052;-76
2023/12/31 03:22:33;;;;;;;0.55;0.30;;;8.60;1.00;;;;;;5043007;28;20041;-76
2023/12/31 03:25:08;;;;;;;0.45;0.20;;;8.60;1.00;;;;;;5044529;28;20129;-76
2023/12/31 03:27:35;;;;;;;0.43;0.35;;;8.60;1.00;;;;;;4991281;28;20448;-76
2023/12/31 03:30:02;;;;;;;1.70;0.40;;;8.60;1.00;;;;;;5023564;28;20133;-75
2023/12/31 03:32:29;;;;;;;1.02;0.17;;;8.60;1.00;;;;;;5023294;28;20994;-75
2023/12/31 03:34:56;;;;;;;0.90;0.40;;;8.60;99.90;;;;;;5024369;28;20119;-75
2023/12/31 03:37:23;;;;;;;1.30;0.40;;;8.70;1.00;;;;;;5021853;28;20107;-75
2023/12/31 03:39:52;;;;;;;0.50;0.30;;;8.70;99.90;;;;;;5024964;28;20057;-75
2023/12/31 03:42:18;;;;;;;0.52;0.20;;;8.70;1.00;;;;;;5041654;28;20095;-76
2023/12/31 03:44:47;;;;;;;1.08;0.43;;;8.70;1.00;;;;;;5021097;28;20102;-75
2023/12/31 03:47:13;;;;;;;0.57;0.35;;;8.70;1.00;;;;;;5021767;28;20099;-76
2023/12/31 03:49:41;;;;;;;0.40;0.20;;;8.70;99.90;;;;;;5004830;28;20049;-76
2023/12/31 03:52:08;;;;;;;0.70;0.35;;;8.70;99.90;;;;;;5007684;28;20045;-76
2023/12/31 03:54:35;;;;;;;1.25;0.30;;;8.70;99.90;;;;;;5023892;28;20053;-75
2023/12/31 03:57:02;;;;;;;2.10;0.38;;;8.80;99.90;;;;;;5032355;28;20083;-76
2023/12/31 03:59:29;;;;;;;2.10;0.40;;;8.80;99.90;;;;;;4997463;28;20119;-75
2023/12/31 04:01:58;;;;;;;0.77;0.40;;;8.80;99.90;;;;;;5019684;28;20044;-76
2023/12/31 04:04:29;;;;;;;1.42;0.40;;;8.80;96.60;;;;;;5032737;28;20071;-76
2023/12/31 04:06:56;;;;;;;1.80;0.70;;;8.80;31.20;;;;;;5037294;28;20044;-76
2023/12/31 04:09:23;;;;;;;2.80;0.77;;;8.80;99.90;;;;;;5029288;28;20045;-75
2023/12/31 04:11:50;;;;;;;2.80;0.55;;;8.80;31.40;;;;;;5031052;28;20099;-75
2023/12/31 04:14:17;;;;;;;1.20;0.77;;;8.90;99.90;;;;;;5023336;28;20046;-76
2023/12/31 04:16:44;;;;;;;1.85;0.43;;;8.80;1.00;;;;;;5027911;28;20056;-75
2023/12/31 04:19:14;;;;;;;2.40;0.70;;;8.80;99.90;;;;;;5033343;28;20065;-76
2023/12/31 04:21:42;;;;;;;0.77;0.43;;;8.80;99.90;;;;;;5034392;28;20746;-76
2023/12/31 04:24:08;;;;;;;1.23;0.60;;;8.80;99.90;;;;;;5039586;28;20742;-75
2023/12/31 04:26:35;;;;;;;1.92;0.60;;;8.70;1.00;;;;;;5038860;28;20071;-75
2023/12/31 04:29:02;;;;;;;1.55;0.60;;;8.70;99.90;;;;;;5040249;28;20053;-76
2023/12/31 04:31:29;;;;;;;1.60;0.85;;;8.70;1.00;;;;;;5038571;28;20049;-75
2023/12/31 04:33:56;;;;;;;1.77;0.70;;;8.70;99.90;;;;;;5023368;28;20430;-76
2023/12/31 04:36:23;;;;;;;1.40;0.82;;;8.70;1.00;;;;;;5019310;28;20499;-76
2023/12/31 04:38:50;;;;;;;1.15;0.63;;;8.70;99.90;;;;;;5005876;28;20099;-76
2023/12/31 04:41:21;;;;;;;2.05;0.70;;;8.70;99.90;;;;;;5014030;28;20056;-76
2023/12/31 04:43:48;;;;;;;1.50;0.60;;;8.60;99.90;;;;;;5042540;28;20160;-76
2023/12/31 04:46:18;;;;;;;2.83;1.20;;;8.70;22.10;;;;;;5042531;28;20395;-76
2023/12/31 04:48:46;;;;;;;2.05;0.90;;;8.70;1.00;;;;;;5042234;28;20053;-76
2023/12/31 04:51:30;;;;;;;2.70;0.63;;;8.70;1.00;;;;;;5041288;28;20080;-76
2023/12/31 04:53:57;;;;;;;2.85;0.75;;;8.60;99.90;;;;;;5025148;28;20114;-76
2023/12/31 04:56:25;;;;;;;2.95;0.80;;;8.70;99.90;;;;;;5042483;28;20621;-76
2023/12/31 04:58:52;;;;;;;1.95;0.70;;;8.70;51.10;;;;;;5041911;28;20048;-76
2023/12/31 05:01:22;;;;;;;2.17;0.68;;;8.70;99.90;;;;;;5041680;28;20076;-76
2023/12/31 05:03:49;;;;;;;2.63;0.68;;;8.70;87.50;;;;;;5042159;28;20088;-76
2023/12/31 05:06:17;;;;;;;1.55;0.60;;;8.70;99.90;;;;;;5041548;28;20169;-76
2023/12/31 05:08:44;;;;;;;2.55;0.80;;;8.60;1.00;;;;;;5041363;28;20057;-76
2023/12/31 05:11:12;;;;;;;1.17;0.65;;;8.60;99.90;;;;;;5041647;28;20107;-76
2023/12/31 05:13:40;;;;;;;1.65;0.57;;;8.60;99.90;;;;;;5042801;28;20108;-75
2023/12/31 05:16:07;;;;;;;0.73;0.50;;;8.50;99.90;;;;;;5042753;28;20371;-76
2023/12/31 05:18:34;;;;;;;2.13;0.52;;;8.50;1.00;;;;;;5043407;28;20057;-76
2023/12/31 05:21:01;;;;;;;1.88;0.80;;;8.50;1.00;;;;;;5041730;28;20041;-76
2023/12/31 05:23:30;;;;;;;1.85;0.70;;;8.50;99.90;;;;;;5025154;28;20491;-76
2023/12/31 05:25:57;;;;;;;4.68;0.75;;;8.50;99.90;;;;;;5042088;28;20059;-76
2023/12/31 05:28:23;;;;;;;0.88;0.40;;;8.40;99.90;;;;;;5024938;28;20426;-76
2023/12/31 05:30:50;;;;;;;1.70;0.60;;;8.40;99.90;;;;;;5023858;28;20045;-76
2023/12/31 05:33:18;;;;;;;0.93;0.47;;;8.40;7.00;;;;;;5041448;28;20131;-76
2023/12/31 05:35:45;;;;;;;2.13;0.98;;;8.40;1.00;;;;;;5038979;28;20088;-76
2023/12/31 05:38:12;;;;;;;3.50;1.00;;;8.30;1.00;;;;;;5040742;28;20048;-76
2023/12/31 05:40:39;;;;;;;2.22;0.82;;;8.30;1.00;;;;;;5040614;28;20071;-76
2023/12/31 05:43:05;;;;;;;1.17;0.73;;;8.20;1.00;;;;;;5041160;28;20569;-76
2023/12/31 05:45:32;;;;;;;1.45;0.43;;;8.20;1.00;;;;;;5040683;28;20567;-76
2023/12/31 05:48:00;;;;;;;0.65;0.43;;;8.20;1.00;;;;;;5041286;28;20045;-76
2023/12/31 05:50:27;;;;;;;0.32;0.20;;;8.20;1.00;;;;;;5039633;28;20080;-76
2023/12/31 05:52:54;;;;;;;0.77;0.32;;;8.10;99.90;;;;;;5040270;28;20490;-76
2023/12/31 05:55:21;;;;;;;0.90;0.50;;;8.00;99.90;;;;;;5025033;28;20103;-76
2023/12/31 05:57:48;;;;;;;3.63;0.70;;;8.00;99.90;;;;;;5041264;28;20423;-77
2023/12/31 06:00:15;;;;;;;1.77;0.60;;;7.90;99.90;;;;;;5005267;28;20053;-76
2023/12/31 06:02:42;;;;;;;0.50;0.20;;;7.80;99.90;;;;;;5033073;28;20046;-76
2023/12/31 06:05:09;;;;;;;1.08;0.32;;;7.80;99.90;;;;;;5019065;28;20079;-76
2023/12/31 06:07:37;;;;;;;1.67;0.30;;;7.70;99.90;;;;;;5002445;28;20061;-76
2023/12/31 06:10:04;;;;;;;0.63;0.30;;;7.70;99.90;;;;;;5019002;28;20077;-76
2023/12/31 06:12:32;;;;;;;0.28;0.28;;;7.60;99.90;;;;;;5033507;28;20072;-76
2023/12/31 06:14:59;;;;;;;0.28;0.20;;;7.50;99.90;;;;;;5019003;28;20053;-76
2023/12/31 06:17:27;;;;;;;0.47;0.20;;;7.50;99.90;;;;;;5023364;28;20060;-76
2023/12/31 06:19:54;;;;;;;0.20;0.20;;;7.50;99.90;;;;;;5022897;28;20168;-76
2023/12/31 06:22:21;;;;;;;0.20;0.10;;;7.50;99.90;;;;;;5028836;28;20058;-76
2023/12/31 06:24:48;;;;;;;0.20;0.20;;;7.40;99.90;;;;;;5037672;28;20063;-76
2023/12/31 06:27:16;;;;;;;0.20;0.20;;;7.40;99.90;;;;;;5030229;28;20067;-76
2023/12/31 06:29:43;;;;;;;0.20;0.20;;;7.30;99.90;;;;;;5024184;28;20064;-77
2023/12/31 06:32:09;;;;;;;0.30;0.30;;;7.30;99.90;;;;;;5037696;28;20061;-76
2023/12/31 06:34:37;;;;;;;0.10;0.10;;;7.30;99.90;;;;;;5000131;28;20081;-76
2023/12/31 06:37:04;;;;;;;0.30;0.20;;;7.20;99.90;;;;;;5018486;28;20052;-77
2023/12/31 06:39:31;;;;;;;0.55;0.32;;;7.20;99.90;;;;;;5020204;28;20057;-76
2023/12/31 06:41:58;;;;;;;0.90;0.38;;;7.20;99.90;;;;;;5030471;28;20126;-76
2023/12/31 06:44:26;;;;;;;0.17;0.17;;;7.10;1.00;;;;;;5020080;28;20140;-76
2023/12/31 06:46:52;;;;;;;1.10;0.20;;;7.10;1.00;;;;;;5014319;28;20523;-77
2023/12/31 06:49:19;;;;;;;0.28;0.25;;;7.00;1.00;;;;;;5038498;28;20639;-76
2023/12/31 06:51:47;;;;;;;0.50;0.25;;;7.00;1.00;;;;;;5037345;28;20132;-76
2023/12/31 06:54:15;;;;;;;0.20;0.20;;;7.00;1.00;;;;;;5037763;28;20045;-76
2023/12/31 06:56:42;;;;;;;0.20;0.20;;;6.90;17.10;;;;;;5039777;28;20084;-76
2023/12/31 06:59:09;;;;;;;0.20;0.20;;;6.90;12.70;;;;;;5037220;28;20049;-76
2023/12/31 07:01:36;;;;;;;0.55;0.30;;;6.80;37.10;;;;;;5037769;28;20044;-75
2023/12/31 07:04:03;;;;;;;0.17;0.17;;;6.80;50.00;;;;;;5039244;28;20102;-76
2023/12/31 07:06:30;;;;;;;0.90;0.55;;;6.80;79.40;;;;;;5038851;28;20463;-76
2023/12/31 07:08:57;;;;;;;0.13;0.13;;;6.80;53.30;;;;;;5035925;28;20061;-76
2023/12/31 07:11:24;;;;;;;1.85;0.30;;;6.80;93.70;;;;;;5037152;28;20182;-78
2023/12/31 07:13:51;;;;;;;0.30;0.20;;;6.70;96.20;;;;;;5038825;28;20434;-76
2023/12/31 07:16:18;;;;;;;0.52;0.20;;;6.70;65.40;;;;;;5037426;28;20920;-76
2023/12/31 07:18:45;;;;;;;0.47;0.30;;;6.70;86.60;;;;;;5037362;28;20053;-76
2023/12/31 07:21:20;;;;;;;0.45;0.30;;;6.70;99.90;;;;;;5021403;28;20045;-76
2023/12/31 07:23:47;;;;;;;1.13;0.30;;;6.60;99.90;;;;;;5034437;28;20076;-76
2023/12/31 07:26:26;;;;;;;0.63;0.25;;;6.60;99.90;;;;;;5037552;28;20204;-76
2023/12/31 07:28:53;;;;;;;0.65;0.22;;;6.60;99.90;;;;;;5039002;28;20083;-76
2023/12/31 07:31:37;;;;;;;0.30;0.30;;;6.60;99.90;;;;;;5037214;28;20059;-75
2023/12/31 07:34:05;;;;;;;1.17;0.40;;;6.60;99.90;;;;;;5027026;28;20377;-76
2023/12/31 07:36:32;;;;;;;1.05;0.30;;;6.60;99.90;;;;;;5018720;28;20056;-76
2023/12/31 07:38:59;;;;;;;0.68;0.28;;;6.60;99.90;;;;;;5037818;28;20092;-76
2023/12/31 07:41:27;;;;;;;0.73;0.30;;;6.60;99.90;;;;;;5023742;28;20045;-77
2023/12/31 07:43:55;;;;;;;0.95;0.30;;;6.60;99.90;;;;;;5014977;28;20403;-77
2023/12/31 07:46:22;;;;;;;0.20;0.20;;;6.60;1.00;;;;;;5025958;28;20635;-76
2023/12/31 07:48:51;;;;;;;0.50;0.25;;;6.70;1.00;;;;;;5035991;28;20049;-76
2023/12/31 07:51:18;;;;;;;0.38;0.30;;;6.60;15.30;;;;;;5030948;28;20048;-76
2023/12/31 07:53:45;;;;;;;0.35;0.32;;;6.60;99.90;;;;;;5016793;28;20057;-76
2023/12/31 07:56:12;;;;;;;0.40;0.30;;;6.60;99.90;;;;;;5005681;28;20053;-77
2023/12/31 07:58:39;;;;;;;0.20;0.20;;;6.60;99.90;;;;;;5028185;28;20064;-76
2023/12/31 08:01:06;;;;;;;0.80;0.50;;;6.60;1.00;;;;;;5033471;28;20152;-77
2023/12/31 08:03:33;;;;;;;1.27;0.52;;;6.60;1.00;;;;;;5030101;28;20052;-77
2023/12/31 08:06:01;;;;;;;0.75;0.20;;;6.60;99.90;;;;;;5029043;28;20092;-76
2023/12/31 08:08:28;;;;;;;0.57;0.50;;;6.70;1.00;;;;;;5030373;28;20838;-78
2023/12/31 08:10:55;;;;;;;0.55;0.30;;;6.70;77.60;;;;;;5034717;28;20049;-77
2023/12/31 08:13:23;;;;;;;0.57;0.30;;;6.70;99.90;;;;;;5019567;28;20052;-77
2023/12/31 08:15:50;;;;;;;1.63;0.30;;;6.80;99.90;;;;;;5036129;28;20045;-76
2023/12/31 08:18:17;;;;;;;1.25;0.40;;;6.80;1.00;;;;;;5033519;28;20446;-76
2023/12/31 08:20:45;;;;;;;0.85;0.30;;;6.80;1.00;;;;;;5036226;28;20635;-77
2023/12/31 08:23:12;;;;;;;0.65;0.40;;;6.90;1.00;;;;;;5037372;28;20099;-77
2023/12/31 08:25:39;;;;;;;0.28;0.25;;;6.90;1.00;;;;;;5036550;28;20598;-77
2023/12/31 08:28:06;;;;;;;0.30;0.20;;;6.90;53.80;;;;;;5033784;28;20089;-77
2023/12/31 08:30:34;;;;;;;0.30;0.30;;;6.90;65.60;;;;;;5041214;28;20045;-76
2023/12/31 08:33:02;;;;;;;0.75;0.40;;;6.90;97.20;;;;;;5034707;28;20072;-76
2023/12/31 08:35:29;;;;;;;1.00;0.40;;;7.00;67.60;;;;;;5032671;28;20049;-76
2023/12/31 08:37:56;;;;;;;0.80;0.30;;;7.00;1.00;;;;;;5034638;28;20377;-76
2023/12/31 08:40:23;;;;;;;1.30;0.30;;;7.00;1.00;;;;;;5036100;28;20124;-76
2023/12/31 08:42:50;;;;;;;0.77;0.30;;;7.10;99.90;;;;;;5033150;28;20055;-76
2023/12/31 08:45:17;;;;;;;0.80;0.30;;;7.10;99.90;;;;;;5034250;28;20163;-77
2023/12/31 08:47:44;;;;;;;0.88;0.40;;;7.10;93.50;;;;;;5037871;28;20490;-77
2023/12/31 08:50:12;;;;;;;0.45;0.32;;;7.10;1.00;;;;;;5035258;28;20049;-77
2023/12/31 08:52:40;;;;;;;2.58;0.60;;;7.20;1.00;;;;;;5015221;28;20642;-77
2023/12/31 08:55:07;;;;;;;2.42;0.55;;;7.20;1.00;;;;;;5037440;28;20049;-77
2023/12/31 08:57:35;;;;;;;1.92;0.45;;;7.20;99.90;;;;;;5020250;28;20045;-77
2023/12/31 09:00:03;;;;;;;1.08;0.50;;;7.30;99.90;;;;;;5035223;28;20045;-77
2023/12/31 09:02:30;;;;;;;2.67;0.90;;;7.40;1.00;;;;;;5034272;28;20041;-77
2023/12/31 09:04:57;;;;;;;0.85;0.60;;;7.50;99.90;;;;;;5015945;28;20107;-76
2023/12/31 09:07:25;;;;;;;1.10;0.50;;;7.50;1.00;;;;;;5034672;28;20052;-77
2023/12/31 09:09:52;;;;;;;1.80;0.68;;;7.60;1.00;;;;;;5020471;28;20045;-77
2023/12/31 09:12:20;;;;;;;1.75;0.60;;;7.60;99.90;;;;;;5026432;28;20101;-77
2023/12/31 09:14:47;;;;;;;3.92;1.00;;;7.70;55.10;;;;;;5015208;28;20145;-77
2023/12/31 09:17:14;;;;;;;1.35;0.80;;;7.80;1.00;;;;;;5035056;28;20051;-77
2023/12/31 09:19:41;;;;;;;1.58;0.50;;;7.80;1.00;;;;;;5028947;28;20130;-76
2023/12/31 09:22:08;;;;;;;0.95;0.77;;;7.90;1.00;;;;;;5031516;28;20560;-77
2023/12/31 09:24:35;;;;;;;1.48;0.70;;;8.00;1.00;;;;;;5031072;28;20049;-76
2023/12/31 09:27:03;;;;;;;2.85;0.90;;;8.10;1.00;;;;;;5028042;28;20053;-77
2023/12/31 09:29:30;;;;;;;2.10;0.57;;;8.30;99.90;;;;;;5039391;28;20053;-77
2023/12/31 09:31:58;;;;;;;1.73;0.60;;;8.30;99.90;;;;;;5024128;28;20119;-76
2023/12/31 09:34:25;;;;;;;3.95;2.15;;;8.40;99.90;;;;;;5024704;28;20044;-76
2023/12/31 09:36:52;;;;;;;2.90;0.88;;;8.50;99.90;;;;;;5035686;28;20529;-76
2023/12/31 09:39:20;;;;;;;4.28;0.70;;;8.50;99.90;;;;;;5017371;28;20095;-76
2023/12/31 09:41:52;;;;;;;1.70;0.70;;;8.50;99.90;;;;;;5025505;28;20123;-76
2023/12/31 09:44:19;;;;;;;1.80;0.60;;;8.60;99.90;;;;;;5016154;28;20169;-77
2023/12/31 09:47:14;;;;;;;1.85;0.60;;;8.70;99.90;;;;;;5018426;28;20052;-77
2023/12/31 09:49:41;;;;;;;1.85;0.68;;;8.70;99.90;;;;;;5023657;28;20402;-76
2023/12/31 09:52:09;;;;;;;2.25;0.90;;;8.70;99.90;;;;;;5038571;28;20064;-77
2023/12/31 09:54:40;;;;;;;1.48;0.57;;;8.80;99.90;;;;;;5031090;28;20136;-76
2023/12/31 09:57:07;;;;;;;2.97;0.63;;;8.80;99.90;;;;;;5032940;28;20620;-76
2023/12/31 09:59:39;;;;;;;2.50;0.60;;;8.70;99.90;;;;;;5018853;28;20057;-76
2023/12/31 10:02:06;;;;;;;1.50;0.60;;;8.70;1.00;;;;;;5006520;28;20045;-76
2023/12/31 10:04:33;;;;;;;2.95;1.13;;;8.60;1.00;;;;;;5034382;28;20110;-76
2023/12/31 10:07:02;;;;;;;1.73;0.70;;;8.60;39.90;;;;;;5034750;28;20118;-78
2023/12/31 10:09:30;;;;;;;2.15;0.60;;;8.50;99.90;;;;;;5034388;28;20144;-76
2023/12/31 10:12:00;;;;;;;2.38;0.82;;;8.40;99.90;;;;;;5018602;28;20083;-76
2023/12/31 10:14:28;;;;;;;1.67;0.68;;;8.30;1.00;;;;;;5031949;28;20132;-77
2023/12/31 10:16:55;;;;;;;1.10;0.57;;;8.30;99.90;;;;;;5028911;28;20481;-76
2023/12/31 10:19:23;;;;;;;1.35;0.55;;;8.20;99.90;;;;;;5029668;28;20052;-76
2023/12/31 10:21:50;;;;;;;1.80;0.60;;;8.20;99.90;;;;;;5030754;28;20130;-75
2023/12/31 10:24:27;;;;;;;1.17;0.32;;;8.10;99.90;;;;;;5024953;28;20817;-75
2023/12/31 10:26:55;;;;;;;0.82;0.45;;;8.10;1.00;;;;;;5027438;28;20132;-76
2023/12/31 10:29:22;;;;;;;0.75;0.38;;;8.10;99.90;;;;;;5024580;28;20053;-76
2023/12/31 10:31:49;;;;;;;0.75;0.40;;;8.10;1.00;;;;;;5015199;28;20516;-76
2023/12/31 10:34:16;;;;;;;1.73;0.40;;;8.20;99.90;;;;;;5011439;28;20041;-76
2023/12/31 10:36:45;;;;;;;0.65;0.47;;;8.20;1.00;;;;;;5011921;28;20045;-76
2023/12/31 10:39:28;;;;;;;1.05;0.50;;;8.20;1.00;;;;;;5027780;28;20048;-76
2023/12/31 10:42:00;;;;;;;0.60;0.50;;;8.30;99.90;;;;;;5029425;28;20056;-77
2023/12/31 10:44:27;;;;;;;2.47;1.13;;;8.30;99.90;;;;;;5028156;28;20041;-77
2023/12/31 10:46:58;;;;;;;1.67;0.80;;;8.30;99.90;;;;;;5022713;28;20053;-76
2023/12/31 10:49:27;;;;;;;2.58;0.80;;;8.30;99.90;;;;;;5027415;28;20154;-77
2023/12/31 10:51:54;;;;;;;1.88;0.90;;;8.30;99.90;;;;;;5009148;28;20051;-77
2023/12/31 10:54:28;;;;;;;1.45;0.50;;;8.20;99.90;;;;;;5011442;28;20764;-77
2023/12/31 10:56:55;;;;;;;1.52;0.70;;;8.20;99.90;;;;;;5035008;28;20387;-77
2023/12/31 10:59:22;;;;;;;2.47;0.88;;;8.20;95.30;;;;;;5023663;28;20412;-76
2023/12/31 11:01:49;;;;;;;1.58;0.68;;;8.20;1.00;;;;;;5016215;28;20045;-77
2023/12/31 11:04:17;;;;;;;0.98;0.40;;;8.20;1.00;;;;;;5000974;28;20040;-77
2023/12/31 11:06:46;;;;;;;0.93;0.57;;;8.20;39.70;;;;;;5007029;28;20158;-77
2023/12/31 11:09:13;;;;;;;1.70;0.70;;;8.30;15.80;;;;;;5035045;28;20079;-77
2023/12/31 11:11:40;;;;;;;1.23;0.73;;;8.30;99.90;;;;;;5022728;28;20131;-77
2023/12/31 11:14:09;;;;;;;2.67;0.95;;;8.40;99.90;;;;;;5031020;28;20383;-78
2023/12/31 11:16:50;;;;;;;0.60;0.47;;;8.40;99.90;;;;;;5034961;28;20045;-78
2023/12/31 11:19:39;;;;;;;3.28;1.17;;;8.50;99.90;;;;;;5025793;28;20479;-78
2023/12/31 11:22:21;;;;;;;1.95;0.90;;;8.50;99.90;;;;;;5018754;28;20929;-78
2023/12/31 11:24:52;;;;;;;1.55;0.80;;;8.50;99.90;;;;;;5029704;28;20056;-77
2023/12/31 11:27:19;;;;;;;2.70;0.82;;;8.50;1.00;;;;;;5036111;28;20053;-77
2023/12/31 11:29:55;;;;;;;3.40;0.93;;;8.50;1.00;;;;;;5031506;28;20131;-77
2023/12/31 11:32:22;;;;;;;2.40;1.00;;;8.50;1.00;;;;;;5016468;28;20114;-76
2023/12/31 11:34:51;;;;;;;2.28;1.13;;;8.50;99.90;;;;;;5020883;28;20816;-77
2023/12/31 11:37:18;;;;;;;2.10;0.80;;;8.50;1.00;;;;;;5036899;28;20053;-77
2023/12/31 11:39:47;;;;;;;2.85;1.55;;;8.50;99.90;;;;;;5025760;28;20059;-77
2023/12/31 11:42:15;;;;;;;3.08;0.90;;;8.50;99.90;;;;;;5026854;28;20475;-77
2023/12/31 11:44:46;;;;;;;2.75;1.55;;;8.60;99.90;;;;;;5020417;28;20150;-78
2023/12/31 11:47:16;;;;;;;;;;;8.60;1.00;;;;;;5010085;28;20049;-77
2023/12/31 11:49:46;;;;;;;1.33;0.60;;;8.70;1.00;;;;;;5028320;28;19925;-77
2023/12/31 11:52:14;;;;;;;3.75;0.98;;;8.70;99.90;;;;;;5033686;28;20094;-77
2023/12/31 11:54:41;;;;;;;3.30;0.90;;;8.80;99.90;;;;;;5032352;28;20118;-77
2023/12/31 11:57:10;;;;;;;1.38;0.77;;;8.80;1.00;;;;;;5014762;28;20148;-77
2023/12/31 11:59:37;;;;;;;2.15;0.85;;;8.90;1.00;;;;;;5029113;28;20092;-78
2023/12/31 12:02:06;;;;;;;1.75;0.75;;;8.90;1.00;;;;;;5013269;28;20155;-79
2023/12/31 12:04:33;;;;;;;2.83;0.80;;;9.00;99.90;;;;;;5019640;28;20049;-77
2023/12/31 12:07:01;;;;;;;3.97;0.90;;;9.00;99.90;;;;;;4999249;28;20049;-77
2023/12/31 12:09:29;;;;;;;2.95;0.80;;;9.10;99.90;;;;;;5011396;28;20468;-77
2023/12/31 12:12:05;;;;;;;3.13;0.95;;;9.20;99.90;;;;;;5027378;28;20052;-79
2023/12/31 12:14:33;;;;;;;1.45;0.75;;;9.30;99.90;;;;;;5017145;28;20049;-77
2023/12/31 12:17:01;;;;;;;1.92;0.80;;;9.60;99.90;;;;;;5031227;28;20049;-79
2023/12/31 12:19:28;;;;;;;1.67;1.25;;;9.80;99.90;;;;;;5030455;28;20099;-79
2023/12/31 12:21:57;;;;;;;2.15;0.70;;;10.10;99.90;;;;;;5010453;28;20662;-79
2023/12/31 12:24:24;;;;;;;2.20;0.80;;;10.40;99.90;;;;;;5014001;28;20422;-79
2023/12/31 12:26:51;;;;;;;2.70;0.80;;;10.50;99.90;;;;;;5000262;28;20411;-79
2023/12/31 12:29:18;;;;;;;3.60;0.77;;;10.40;99.90;;;;;;5004038;28;20106;-78
2023/12/31 12:31:47;;;;;;;2.28;1.10;;;10.30;99.90;;;;;;5028100;28;20730;-77
2023/12/31 12:34:15;;;;;;;3.95;1.38;;;10.10;99.90;;;;;;5028052;28;20063;-78
2023/12/31 12:36:48;;;;;;;2.35;0.70;;;10.00;99.90;;;;;;4986057;28;20156;-79
2023/12/31 12:39:15;;;;;;;;;;;9.90;99.90;;;;;;5016135;28;20099;-78
2023/12/31 12:41:52;;;;;;;3.65;1.30;;;9.80;99.90;;;;;;5037127;28;19986;-77
2023/12/31 12:44:22;;;;;;;3.15;1.35;;;9.80;99.90;;;;;;4996246;28;20611;-78
2023/12/31 12:46:51;;;;;;;2.03;1.02;;;9.80;99.90;;;;;;5031701;28;20052;-78
2023/12/31 12:49:18;;;;;;;4.13;0.95;;;9.90;99.90;;;;;;5013313;28;20521;-78
2023/12/31 12:51:46;;;;;;;3.78;1.40;;;10.20;99.90;;;;;;5034891;28;20055;-78
2023/12/31 12:54:13;;;;;;;4.72;1.38;;;10.50;99.90;;;;;;5033717;28;20045;-78
2023/12/31 12:56:40;;;;;;;2.88;1.25;;;10.80;99.90;;;;;;5034863;28;20057;-78
2023/12/31 12:59:07;;;;;;;2.83;1.30;;;10.90;99.90;;;;;;5018245;28;20122;-78
2023/12/31 13:01:34;;;;;;;3.50;1.55;;;11.00;99.90;;;;;;4997320;28;20119;-78
2023/12/31 13:04:01;;;;;;;4.53;1.90;;;11.00;99.90;;;;;;5021273;28;20052;-78